createdAt,value
2018-07-31T00:00:53.808Z,8.93
2018-07-31T00:03:22.373Z,9.30
2018-07-31T00:05:50.834Z,8.80
2018-07-31T00:08:19.305Z,8.73
2018-07-31T00:10:47.970Z,9.37
2018-07-31T00:13:16.440Z,9.50
2018-07-31T00:15:44.980Z,9.10
2018-07-31T00:18:14.134Z,8.83
2018-07-31T00:20:42.654Z,8.87
2018-07-31T00:23:11.146Z,9.23
2018-07-31T00:25:39.633Z,9.20
2018-07-31T00:28:08.134Z,9.40
2018-07-31T00:30:36.631Z,8.87
2018-07-31T00:33:05.190Z,9.00
2018-07-31T00:35:33.971Z,9.60
2018-07-31T00:38:02.449Z,9.40
2018-07-31T00:40:30.934Z,9.80
2018-07-31T00:42:59.432Z,9.80
2018-07-31T00:45:27.938Z,9.70
2018-07-31T00:47:56.446Z,9.27
2018-07-31T00:50:24.954Z,9.53
2018-07-31T00:52:53.439Z,9.03
2018-07-31T00:55:21.729Z,9.73
2018-07-31T00:57:50.230Z,9.87
2018-07-31T01:00:18.694Z,10.00
2018-07-31T01:02:47.281Z,9.53
2018-07-31T01:05:15.849Z,9.83
2018-07-31T01:07:44.359Z,10.23
2018-07-31T01:10:12.891Z,10.47
2018-07-31T01:12:41.395Z,11.70
2018-07-31T01:15:09.923Z,11.43
2018-07-31T01:17:38.600Z,12.17
2018-07-31T01:20:07.250Z,11.30
2018-07-31T01:22:36.550Z,12.57
2018-07-31T01:25:05.745Z,12.00
2018-07-31T01:27:34.250Z,13.63
2018-07-31T01:30:02.890Z,11.80
2018-07-31T01:32:31.417Z,12.43
2018-07-31T01:34:59.619Z,11.77
2018-07-31T01:37:28.273Z,12.83
2018-07-31T01:39:56.794Z,11.90
2018-07-31T01:42:25.326Z,11.53
2018-07-31T01:44:53.842Z,12.17
2018-07-31T01:47:22.311Z,12.00
2018-07-31T01:49:50.805Z,12.40
2018-07-31T01:52:19.414Z,11.93
2018-07-31T01:54:47.890Z,11.83
2018-07-31T01:57:16.473Z,12.40
2018-07-31T01:59:44.988Z,12.37
2018-07-31T02:02:13.538Z,11.53
2018-07-31T02:04:42.034Z,12.53
2018-07-31T02:07:10.555Z,12.17
2018-07-31T02:09:39.070Z,11.87
2018-07-31T02:12:07.591Z,13.00
2018-07-31T02:14:36.138Z,12.03
2018-07-31T02:17:04.714Z,12.13
2018-07-31T02:19:33.320Z,13.10
2018-07-31T02:22:01.857Z,12.97
2018-07-31T02:24:30.540Z,12.63
2018-07-31T02:26:59.030Z,12.33
2018-07-31T02:29:32.831Z,11.63
2018-07-31T02:32:01.338Z,12.70
2018-07-31T02:34:29.795Z,12.17
2018-07-31T02:36:58.399Z,13.13
2018-07-31T02:39:26.911Z,12.30
2018-07-31T02:41:55.378Z,12.67
2018-07-31T02:44:23.894Z,11.47
2018-07-31T02:46:52.408Z,12.97
2018-07-31T02:49:20.902Z,13.10
2018-07-31T02:51:49.427Z,11.77
2018-07-31T02:54:17.910Z,12.07
2018-07-31T02:56:46.494Z,12.20
2018-07-31T02:59:14.994Z,12.43
2018-07-31T03:01:44.147Z,12.83
2018-07-31T03:04:12.627Z,12.90
2018-07-31T03:06:41.166Z,13.77
2018-07-31T03:09:10.259Z,12.83
2018-07-31T03:11:38.855Z,14.03
2018-07-31T03:14:07.423Z,14.00
2018-07-31T03:16:35.962Z,14.20
2018-07-31T03:19:04.185Z,14.07
2018-07-31T03:21:32.767Z,13.63
2018-07-31T03:24:01.294Z,14.70
2018-07-31T03:26:30.125Z,14.47
2018-07-31T03:28:58.689Z,14.57
2018-07-31T03:31:27.213Z,14.00
2018-07-31T03:33:56.195Z,15.00
2018-07-31T03:36:24.833Z,16.17
2018-07-31T03:38:53.348Z,15.63
2018-07-31T03:41:21.842Z,15.80
2018-07-31T03:43:50.393Z,15.20
2018-07-31T03:46:19.908Z,15.63
2018-07-31T03:48:48.527Z,15.90
2018-07-31T03:51:17.087Z,16.10
2018-07-31T03:53:45.546Z,14.47
2018-07-31T03:56:14.102Z,14.90
2018-07-31T03:58:42.651Z,14.83
2018-07-31T04:01:11.144Z,15.40
2018-07-31T04:03:39.669Z,14.67
2018-07-31T04:06:08.217Z,14.73
2018-07-31T04:08:36.694Z,14.63
2018-07-31T04:11:05.220Z,14.77
2018-07-31T04:13:33.741Z,14.87
2018-07-31T04:16:02.298Z,14.20
2018-07-31T04:18:30.793Z,14.30
2018-07-31T04:20:59.325Z,13.40
2018-07-31T04:23:28.518Z,13.70
2018-07-31T04:25:57.334Z,14.40
2018-07-31T04:28:26.106Z,13.63
2018-07-31T04:30:54.725Z,13.03
2018-07-31T04:33:23.210Z,12.70
2018-07-31T04:35:51.746Z,12.80
2018-07-31T04:38:20.447Z,12.83
2018-07-31T04:40:49.042Z,12.70
2018-07-31T04:43:19.234Z,12.73
2018-07-31T04:45:48.601Z,12.63
2018-07-31T04:48:17.085Z,12.33
2018-07-31T04:50:45.669Z,11.77
2018-07-31T04:53:14.182Z,12.40
2018-07-31T04:55:42.678Z,12.00
2018-07-31T04:58:11.245Z,11.70
2018-07-31T05:00:39.722Z,11.30
2018-07-31T05:03:08.231Z,12.60
2018-07-31T05:05:36.753Z,12.17
2018-07-31T05:08:05.436Z,12.10
2018-07-31T05:10:33.975Z,12.23
2018-07-31T05:13:02.442Z,11.50
2018-07-31T05:15:30.979Z,11.27
2018-07-31T05:17:59.558Z,12.03
2018-07-31T05:20:28.086Z,11.57
2018-07-31T05:22:56.566Z,11.87
2018-07-31T05:25:25.123Z,11.60
2018-07-31T05:27:53.631Z,11.50
2018-07-31T05:30:22.158Z,12.03
2018-07-31T05:32:50.848Z,11.00
2018-07-31T05:35:19.169Z,11.50
2018-07-31T05:37:47.686Z,10.60
2018-07-31T05:40:16.270Z,10.70
2018-07-31T05:42:44.765Z,10.93
2018-07-31T05:45:13.327Z,11.37
2018-07-31T05:47:41.806Z,9.83
2018-07-31T05:50:10.825Z,10.47
2018-07-31T05:52:39.746Z,9.33
2018-07-31T05:55:08.438Z,9.93
2018-07-31T05:57:36.966Z,9.60
2018-07-31T06:00:06.957Z,9.53
2018-07-31T06:02:35.466Z,9.87
2018-07-31T06:05:04.062Z,9.30
2018-07-31T06:07:32.566Z,8.33
2018-07-31T06:10:01.058Z,8.80
2018-07-31T06:12:29.606Z,7.50
2018-07-31T06:14:58.118Z,8.50
2018-07-31T06:17:26.646Z,7.70
2018-07-31T06:19:55.134Z,8.20
2018-07-31T06:22:23.615Z,7.93
2018-07-31T06:24:52.196Z,7.57
2018-07-31T06:27:20.847Z,8.07
2018-07-31T06:29:49.378Z,7.67
2018-07-31T06:32:17.862Z,6.93
2018-07-31T06:34:46.357Z,6.40
2018-07-31T06:37:14.910Z,6.57
2018-07-31T06:39:43.458Z,7.17
2018-07-31T06:42:12.022Z,6.67
2018-07-31T06:44:40.653Z,8.03
2018-07-31T06:47:09.142Z,7.93
2018-07-31T06:49:37.622Z,8.90
2018-07-31T06:52:06.099Z,9.00
2018-07-31T06:54:34.595Z,9.23
2018-07-31T06:57:03.082Z,8.73
2018-07-31T06:59:31.703Z,9.27
2018-07-31T07:02:00.344Z,8.73
2018-07-31T07:04:28.874Z,9.07
2018-07-31T07:06:57.345Z,9.40
2018-07-31T07:09:25.846Z,8.70
2018-07-31T07:11:54.361Z,9.00
2018-07-31T07:14:22.886Z,10.17
2018-07-31T07:16:51.415Z,10.93
2018-07-31T07:19:20.104Z,10.47
2018-07-31T07:21:48.638Z,10.53
2018-07-31T07:24:17.121Z,11.40
2018-07-31T07:26:45.666Z,11.40
2018-07-31T07:29:14.218Z,11.33
2018-07-31T07:31:43.701Z,10.90
2018-07-31T07:34:12.278Z,10.83
2018-07-31T07:36:40.794Z,11.70
2018-07-31T07:39:11.914Z,10.43
2018-07-31T07:41:40.982Z,9.93
2018-07-31T07:44:10.294Z,9.43
2018-07-31T07:46:38.827Z,9.37
2018-07-31T07:49:07.120Z,9.63
2018-07-31T07:51:35.704Z,9.07
2018-07-31T07:54:04.286Z,9.57
2018-07-31T07:56:32.790Z,9.33
2018-07-31T07:59:01.321Z,8.93
2018-07-31T08:01:29.493Z,9.43
2018-07-31T08:03:58.125Z,8.60
2018-07-31T08:06:26.628Z,9.10
2018-07-31T08:08:55.130Z,8.20
2018-07-31T08:11:24.280Z,9.40
2018-07-31T08:13:52.782Z,9.40
2018-07-31T08:16:21.290Z,9.77
2018-07-31T08:18:50.773Z,9.40
2018-07-31T08:21:19.419Z,9.33
2018-07-31T08:23:48.114Z,9.13
2018-07-31T08:26:16.623Z,9.10
2018-07-31T08:28:45.102Z,9.43
2018-07-31T08:31:13.625Z,10.13
2018-07-31T08:33:42.134Z,11.03
2018-07-31T08:36:10.695Z,10.30
2018-07-31T08:38:39.304Z,10.37
2018-07-31T08:41:08.033Z,10.30
2018-07-31T08:43:36.536Z,10.10
2018-07-31T08:46:05.180Z,9.83
2018-07-31T08:48:33.670Z,9.73
2018-07-31T08:51:02.207Z,9.33
2018-07-31T08:53:30.662Z,10.40
2018-07-31T08:55:59.161Z,10.50
2018-07-31T08:58:27.745Z,9.73
2018-07-31T09:00:57.215Z,9.17
2018-07-31T09:03:25.750Z,9.40
2018-07-31T09:05:54.718Z,9.20
2018-07-31T09:08:23.219Z,7.60
2018-07-31T09:10:51.730Z,7.97
2018-07-31T09:13:20.728Z,8.90
2018-07-31T09:15:49.286Z,10.33
2018-07-31T09:18:17.854Z,8.57
2018-07-31T09:20:46.378Z,9.67
2018-07-31T09:23:15.242Z,9.30
2018-07-31T09:25:47.173Z,8.00
2018-07-31T09:28:17.476Z,8.57
2018-07-31T09:30:51.348Z,8.13
2018-07-31T09:33:19.914Z,8.27
2018-07-31T09:35:49.000Z,7.87
2018-07-31T09:38:17.488Z,7.83
2018-07-31T09:40:46.034Z,7.93
2018-07-31T09:43:14.715Z,7.77
2018-07-31T09:45:43.216Z,7.60
2018-07-31T09:48:12.058Z,8.07
2018-07-31T09:50:40.646Z,7.80
2018-07-31T09:53:09.463Z,8.00
2018-07-31T09:55:38.254Z,7.63
2018-07-31T09:58:06.810Z,8.10
2018-07-31T10:00:40.576Z,8.90
2018-07-31T10:03:09.379Z,8.87
2018-07-31T10:05:38.130Z,8.93
2018-07-31T10:08:07.118Z,8.53
2018-07-31T10:10:36.935Z,9.33
2018-07-31T10:13:05.402Z,9.00
2018-07-31T10:15:34.126Z,9.30
2018-07-31T10:18:02.685Z,9.03
2018-07-31T10:20:31.194Z,8.27
2018-07-31T10:23:00.242Z,8.30
2018-07-31T10:25:28.809Z,8.63
2018-07-31T10:27:57.362Z,8.77
2018-07-31T10:30:26.153Z,8.90
2018-07-31T10:32:55.522Z,8.60
2018-07-31T10:35:24.209Z,7.80
2018-07-31T10:37:52.772Z,8.47
2018-07-31T10:40:21.591Z,8.53
2018-07-31T10:42:50.205Z,8.53
2018-07-31T10:45:18.820Z,8.50
2018-07-31T10:47:47.363Z,7.93
2018-07-31T10:50:16.862Z,8.00
2018-07-31T10:52:45.538Z,7.83
2018-07-31T10:55:14.174Z,7.47
2018-07-31T10:57:42.679Z,7.27
2018-07-31T11:00:11.267Z,7.17
2018-07-31T11:02:40.352Z,6.83
2018-07-31T11:05:09.178Z,6.30
2018-07-31T11:07:37.761Z,6.93
2018-07-31T11:10:06.779Z,6.70
2018-07-31T11:12:35.608Z,6.43
2018-07-31T11:15:04.738Z,5.83
2018-07-31T11:17:33.568Z,6.93
2018-07-31T11:20:02.175Z,6.40
2018-07-31T11:22:30.678Z,6.47
2018-07-31T11:24:59.196Z,6.50
2018-07-31T11:27:28.136Z,6.20
2018-07-31T11:29:56.684Z,6.80
2018-07-31T11:32:25.162Z,6.93
2018-07-31T11:34:53.867Z,7.70
2018-07-31T11:37:22.470Z,7.00
2018-07-31T11:39:51.427Z,7.43
2018-07-31T11:42:19.950Z,6.97
2018-07-31T11:44:48.522Z,7.10
2018-07-31T11:47:17.055Z,7.30
2018-07-31T11:49:45.563Z,7.20
2018-07-31T11:52:14.115Z,7.27
2018-07-31T11:54:42.627Z,6.47
2018-07-31T11:57:11.315Z,6.20
2018-07-31T11:59:39.858Z,5.87
2018-07-31T12:02:08.447Z,6.20
2018-07-31T12:04:37.847Z,6.00
2018-07-31T12:07:06.354Z,6.73
2018-07-31T12:09:34.859Z,6.43
2018-07-31T12:12:03.408Z,6.83
2018-07-31T12:14:31.990Z,6.57
2018-07-31T12:17:00.491Z,6.90
2018-07-31T12:19:29.102Z,6.33
2018-07-31T12:21:57.674Z,6.60
2018-07-31T12:24:26.342Z,6.90
2018-07-31T12:26:54.833Z,6.80
2018-07-31T12:29:23.367Z,6.63
2018-07-31T12:31:51.875Z,7.27
2018-07-31T12:34:20.774Z,6.73
2018-07-31T12:36:49.358Z,7.20
2018-07-31T12:39:17.885Z,7.30
2018-07-31T12:41:46.370Z,6.60
2018-07-31T12:44:14.862Z,7.30
2018-07-31T12:46:43.403Z,6.80
2018-07-31T12:49:11.935Z,7.30
2018-07-31T12:51:40.491Z,7.33
2018-07-31T12:54:08.978Z,7.30
2018-07-31T12:56:37.546Z,7.30
2018-07-31T12:59:06.284Z,7.40
2018-07-31T13:01:34.764Z,7.47
2018-07-31T13:04:03.289Z,6.53
2018-07-31T13:06:31.898Z,6.50
2018-07-31T13:09:00.387Z,6.20
2018-07-31T13:11:29.370Z,6.10
2018-07-31T13:13:58.608Z,6.50
2018-07-31T13:16:27.114Z,5.93
2018-07-31T13:18:55.639Z,5.97
2018-07-31T13:21:24.143Z,6.60
2018-07-31T13:23:52.754Z,6.53
2018-07-31T13:26:21.337Z,5.83
2018-07-31T13:28:50.074Z,5.80
2018-07-31T13:31:18.695Z,5.83
2018-07-31T13:33:47.294Z,6.27
2018-07-31T13:36:15.852Z,6.40
2018-07-31T13:38:44.323Z,6.00
2018-07-31T13:41:12.866Z,6.00
2018-07-31T13:43:41.462Z,6.50
2018-07-31T13:46:09.878Z,6.10
2018-07-31T13:48:38.547Z,6.07
2018-07-31T13:51:07.154Z,6.13
2018-07-31T13:53:35.674Z,5.90
2018-07-31T13:56:04.222Z,6.00
2018-07-31T13:58:32.713Z,6.23
2018-07-31T14:01:01.242Z,5.80
2018-07-31T14:03:29.882Z,5.90
2018-07-31T14:05:58.358Z,6.03
2018-07-31T14:08:26.959Z,5.60
2018-07-31T14:10:55.531Z,6.03
2018-07-31T14:13:24.031Z,5.93
2018-07-31T14:15:52.617Z,5.70
2018-07-31T14:18:21.159Z,6.13
2018-07-31T14:20:49.954Z,5.90
2018-07-31T14:23:18.510Z,5.20
2018-07-31T14:25:47.080Z,5.30
2018-07-31T14:28:15.720Z,5.60
2018-07-31T14:30:44.476Z,5.47
2018-07-31T14:33:13.073Z,5.43
2018-07-31T14:35:41.603Z,6.20
2018-07-31T14:38:10.415Z,5.17
2018-07-31T14:40:38.938Z,5.20
2018-07-31T14:43:07.534Z,5.40
2018-07-31T14:45:36.030Z,5.63
2018-07-31T14:48:04.523Z,5.43
2018-07-31T14:50:33.115Z,5.60
2018-07-31T14:53:01.748Z,5.87
2018-07-31T14:55:30.375Z,5.40
2018-07-31T14:57:58.874Z,5.57
2018-07-31T15:00:27.478Z,5.10
2018-07-31T15:02:56.037Z,4.93
2018-07-31T15:05:24.573Z,5.27
2018-07-31T15:07:53.058Z,5.13
2018-07-31T15:10:21.266Z,5.50
2018-07-31T15:12:49.890Z,5.20
2018-07-31T15:15:18.487Z,5.47
2018-07-31T15:17:47.123Z,5.60
2018-07-31T15:20:16.253Z,5.33
2018-07-31T15:22:44.773Z,5.53
2018-07-31T15:25:13.342Z,5.30
2018-07-31T15:27:41.860Z,5.47
2018-07-31T15:30:10.453Z,5.00
2018-07-31T15:32:39.094Z,5.37
2018-07-31T15:35:08.115Z,5.60
2018-07-31T15:37:36.752Z,5.00
2018-07-31T15:40:06.129Z,4.67
2018-07-31T15:42:34.842Z,5.13
2018-07-31T15:45:03.481Z,5.40
2018-07-31T15:47:32.171Z,4.80
2018-07-31T15:50:00.676Z,5.00
2018-07-31T15:52:29.243Z,4.90
2018-07-31T15:54:57.916Z,4.90
2018-07-31T15:57:26.465Z,4.77
2018-07-31T15:59:54.786Z,5.23
2018-07-31T16:02:23.326Z,5.43
2018-07-31T16:04:51.973Z,6.37
2018-07-31T16:07:20.579Z,7.17
2018-07-31T16:09:49.133Z,7.80
2018-07-31T16:12:17.704Z,7.67
2018-07-31T16:14:46.263Z,7.00
2018-07-31T16:17:15.483Z,7.20
2018-07-31T16:19:44.034Z,6.60
2018-07-31T16:22:12.689Z,5.83
2018-07-31T16:24:41.218Z,6.17
2018-07-31T16:27:09.774Z,5.83
2018-07-31T16:29:38.314Z,5.57
2018-07-31T16:32:06.858Z,6.07
2018-07-31T16:34:35.069Z,6.03
2018-07-31T16:37:03.763Z,6.37
2018-07-31T16:39:32.253Z,6.30
2018-07-31T16:42:01.078Z,6.17
2018-07-31T16:44:29.858Z,5.17
2018-07-31T16:46:58.354Z,5.60
2018-07-31T16:49:26.846Z,5.47
2018-07-31T16:51:55.338Z,5.23
2018-07-31T16:54:23.850Z,5.20
2018-07-31T16:56:52.382Z,4.83
2018-07-31T16:59:20.899Z,4.30
2018-07-31T17:01:49.451Z,4.90
2018-07-31T17:04:18.556Z,4.90
2018-07-31T17:06:47.058Z,5.30
2018-07-31T17:09:15.558Z,4.60
2018-07-31T17:11:44.095Z,4.57
2018-07-31T17:14:12.619Z,5.50
2018-07-31T17:16:41.182Z,5.00
2018-07-31T17:19:09.726Z,5.23
2018-07-31T17:21:38.318Z,5.43
2018-07-31T17:24:06.844Z,6.03
2018-07-31T17:26:35.355Z,5.20
2018-07-31T17:29:03.939Z,5.33
2018-07-31T17:31:32.485Z,5.40
2018-07-31T17:34:01.006Z,4.40
2018-07-31T17:36:29.554Z,5.27
2018-07-31T17:38:58.083Z,4.80
2018-07-31T17:41:26.587Z,4.83
2018-07-31T17:43:55.135Z,5.07
2018-07-31T17:46:23.660Z,4.90
2018-07-31T17:48:52.195Z,4.90
2018-07-31T17:51:20.654Z,5.37
2018-07-31T17:53:49.145Z,5.83
2018-07-31T17:56:17.658Z,6.30
2018-07-31T17:58:46.211Z,7.30
2018-07-31T18:01:14.705Z,7.60
2018-07-31T18:03:43.222Z,5.70
2018-07-31T18:06:11.882Z,6.10
2018-07-31T18:08:40.653Z,6.13
2018-07-31T18:11:09.231Z,6.20
2018-07-31T18:13:37.778Z,6.67
2018-07-31T18:16:06.639Z,6.70
2018-07-31T18:18:35.173Z,6.63
2018-07-31T18:21:03.856Z,6.40
2018-07-31T18:23:32.040Z,6.70
2018-07-31T18:26:00.568Z,7.37
2018-07-31T18:28:29.110Z,7.10
2018-07-31T18:30:57.583Z,6.70
2018-07-31T18:33:26.638Z,7.13
2018-07-31T18:35:55.164Z,7.77
2018-07-31T18:38:23.666Z,6.97
2018-07-31T18:40:52.135Z,7.10
2018-07-31T18:43:20.762Z,7.23
2018-07-31T18:45:49.298Z,7.50
2018-07-31T18:48:18.540Z,7.70
2018-07-31T18:50:47.075Z,8.07
2018-07-31T18:53:15.551Z,6.90
2018-07-31T18:55:44.123Z,6.70
2018-07-31T18:58:12.627Z,6.67
2018-07-31T19:00:41.872Z,7.00
2018-07-31T19:03:10.410Z,6.57
2018-07-31T19:05:38.898Z,6.80
2018-07-31T19:08:07.402Z,6.63
2018-07-31T19:10:35.923Z,7.10
2018-07-31T19:13:04.502Z,7.03
2018-07-31T19:15:33.014Z,7.27
2018-07-31T19:18:01.578Z,7.03
2018-07-31T19:20:30.122Z,7.00
2018-07-31T19:22:58.634Z,7.63
2018-07-31T19:25:27.166Z,7.07
2018-07-31T19:27:55.707Z,7.90
2018-07-31T19:30:24.184Z,7.90
2018-07-31T19:32:53.054Z,7.43
2018-07-31T19:35:21.628Z,7.90
2018-07-31T19:37:50.582Z,7.67
2018-07-31T19:40:19.187Z,7.63
2018-07-31T19:42:47.798Z,8.30
2018-07-31T19:45:16.387Z,7.67
2018-07-31T19:47:51.659Z,7.97
2018-07-31T19:50:31.368Z,7.47
2018-07-31T19:53:10.040Z,7.60
2018-07-31T19:55:47.054Z,7.80
2018-07-31T19:58:26.338Z,7.30
2018-07-31T20:01:07.837Z,7.20
2018-07-31T20:03:45.608Z,7.57
2018-07-31T20:06:21.664Z,7.17
2018-07-31T20:09:00.279Z,7.80
2018-07-31T20:11:40.262Z,7.03
2018-07-31T20:14:20.109Z,7.80
2018-07-31T20:16:52.363Z,8.10
2018-07-31T20:19:29.854Z,8.10
2018-07-31T20:22:10.276Z,7.77
2018-07-31T20:24:50.690Z,8.73
2018-07-31T20:27:24.959Z,8.30
2018-07-31T20:30:00.298Z,8.60
2018-07-31T20:32:30.060Z,8.37
2018-07-31T20:35:10.805Z,8.57
2018-07-31T20:37:46.606Z,8.83
2018-07-31T20:40:25.006Z,8.63
2018-07-31T20:42:57.270Z,8.70
2018-07-31T20:45:27.026Z,9.43
2018-07-31T20:47:55.203Z,8.67
2018-07-31T20:50:24.235Z,8.13
2018-07-31T20:52:53.760Z,8.40
2018-07-31T20:55:22.595Z,9.00
2018-07-31T20:57:51.521Z,9.07
2018-07-31T21:00:20.960Z,9.20
2018-07-31T21:02:50.068Z,9.43
2018-07-31T21:05:19.276Z,9.40
2018-07-31T21:07:50.167Z,9.67
2018-07-31T21:10:21.465Z,9.40
2018-07-31T21:12:51.721Z,10.03
2018-07-31T21:15:22.039Z,9.20
2018-07-31T21:17:50.616Z,10.37
2018-07-31T21:20:19.126Z,9.73
2018-07-31T21:22:47.618Z,10.87
2018-07-31T21:25:16.170Z,10.27
2018-07-31T21:27:44.674Z,9.70
2018-07-31T21:30:13.186Z,10.03
2018-07-31T21:32:41.785Z,10.80
2018-07-31T21:35:10.286Z,10.60
2018-07-31T21:37:38.820Z,10.40
2018-07-31T21:40:07.490Z,10.73
2018-07-31T21:42:35.998Z,10.30
2018-07-31T21:45:04.598Z,11.17
2018-07-31T21:47:33.282Z,11.20
2018-07-31T21:50:02.202Z,10.50
2018-07-31T21:52:30.804Z,11.40
2018-07-31T21:54:59.382Z,10.67
2018-07-31T21:57:28.282Z,11.03
2018-07-31T21:59:56.793Z,12.13
2018-07-31T22:02:25.322Z,11.13
2018-07-31T22:04:53.878Z,11.37
2018-07-31T22:07:22.357Z,11.47
2018-07-31T22:09:50.893Z,11.93
2018-07-31T22:12:19.446Z,11.30
2018-07-31T22:14:47.996Z,11.90
2018-07-31T22:17:16.515Z,11.90
2018-07-31T22:19:45.007Z,12.10
2018-07-31T22:22:13.595Z,12.43
2018-07-31T22:24:42.121Z,12.30
2018-07-31T22:27:10.643Z,12.77
2018-07-31T22:29:39.182Z,12.53
2018-07-31T22:32:07.768Z,12.23
2018-07-31T22:34:36.621Z,13.20
2018-07-31T22:37:05.218Z,13.37
2018-07-31T22:39:35.609Z,13.17
2018-07-31T22:42:04.249Z,13.13
2018-07-31T22:44:32.787Z,12.53
2018-07-31T22:47:01.284Z,12.33
2018-07-31T22:49:29.813Z,12.37
2018-07-31T22:51:58.298Z,13.03
2018-07-31T22:54:26.774Z,12.87
2018-07-31T22:56:55.284Z,12.90
2018-07-31T22:59:23.777Z,13.20
2018-07-31T23:01:53.159Z,13.47
2018-07-31T23:04:21.653Z,13.70
2018-07-31T23:06:50.160Z,14.23
2018-07-31T23:09:18.672Z,13.53
2018-07-31T23:11:47.194Z,14.27
2018-07-31T23:14:15.791Z,13.87
2018-07-31T23:16:44.296Z,14.50
2018-07-31T23:19:12.832Z,14.47
2018-07-31T23:21:41.433Z,14.87
2018-07-31T23:24:09.943Z,14.90
2018-07-31T23:26:38.514Z,14.37
2018-07-31T23:29:07.858Z,15.43
2018-07-31T23:31:36.489Z,15.63
2018-07-31T23:34:05.290Z,15.37
2018-07-31T23:36:33.842Z,16.33
2018-07-31T23:39:02.374Z,15.57
2018-07-31T23:41:30.927Z,16.00
2018-07-31T23:43:59.474Z,15.53
2018-07-31T23:46:28.022Z,15.43
2018-07-31T23:48:56.530Z,15.17
2018-07-31T23:51:25.008Z,15.00
2018-07-31T23:53:53.521Z,14.73
2018-07-31T23:56:22.014Z,14.77
2018-07-31T23:58:50.535Z,15.40
